CheckWX is a tool to help pilots better visualize weather data.  It is not intended as a substitute for an official pre-flight weather briefing.

01:09:19 UTC

KOCW METAR
Washington-Warren Airport
Washington, North Carolina, USA
Current

29 mins ago

KOCW 240040Z AUTO 29003KT 2 1/2SM BR OVC003 09/08 A3012 RMK AO2 T00870083
Observed
Feb-24 @ 00:40 UTC
Wind
  • 290° at 3 KTS
Visibility
2 1/2 SM
Flight Rules
LIFR
Conditions
Mist
Cloud Levels
  • Overcast at 300' AGL
Temperature
C / 48°F
Dewpoint
C / 46°F
Humidity
94%
Altimeter
30.12" Hg
Pressure
1020.02 hPa
Previous

49 mins ago

KOCW 240020Z AUTO 00000KT 2 1/2SM BR OVC003 09/08 A3012 RMK AO2 T00880083
Observed
Feb-24 @ 00:20 UTC
Visibility
2 1/2 SM
Flight Rules
LIFR
Conditions
Mist
Cloud Levels
  • Overcast at 300' AGL
Temperature
C / 48°F
Dewpoint
C / 46°F
Humidity
94%
Altimeter
30.12" Hg
Pressure
1020.02 hPa
Previous

1 hour ago

KOCW 240000Z AUTO 00000KT 2SM -DZ OVC003 09/09 A3013 RMK AO2 T00900085
Observed
Feb-24 @ 00:00 UTC
Visibility
2 SM
Flight Rules
LIFR
Conditions
Light Drizzle
Cloud Levels
  • Overcast at 300' AGL
Temperature
C / 48°F
Dewpoint
C / 48°F
Humidity
100%
Altimeter
30.13" Hg
Pressure
1020.32 hPa